Time;durP1;ratioP1;P1;durP2;ratioP2;P2;SDS_P1;SDS_P2;PMS_P1;PMS_P2;Temp;Humidity;BMP_temperature;BMP_pressure;BME280_temperature;BME280_humidity;BME280_pressure;Samples;Min_cycle;Max_cycle;Signal;HPM_P1;HPM_P2
2022/11/15 00:00:17;;;;;;;14.87;10.38;;;;;;;12.07;60.19;102536.32;1602506;88;21104;-50
2022/11/15 00:03:03;;;;;;;12.37;10.72;;;;;;;12.09;60.22;102531.09;1601540;88;21133;-51
2022/11/15 00:05:48;;;;;;;12.30;9.53;;;;;;;12.08;60.13;102528.03;1602168;88;21541;-51
2022/11/15 00:08:35;;;;;;;12.73;10.23;;;;;;;12.06;60.00;102527.16;1605972;88;21613;-50
2022/11/15 00:11:20;;;;;;;11.43;9.90;;;;;;;12.04;59.90;102526.30;1606841;88;21116;-51
2022/11/15 00:14:05;;;;;;;13.65;10.68;;;;;;;11.99;59.99;102526.75;1604246;89;21086;-50
2022/11/15 00:16:50;;;;;;;10.58;9.58;;;;;;;11.97;60.15;102526.72;1599120;88;21518;-50
2022/11/15 00:19:36;;;;;;;12.90;10.13;;;;;;;11.98;60.22;102524.98;1600823;88;21143;-50
2022/11/15 00:22:22;;;;;;;13.35;10.32;;;;;;;11.98;60.23;102527.60;1608159;88;21104;-50
2022/11/15 00:25:08;;;;;;;14.73;10.15;;;;;;;11.98;60.32;102524.98;1610688;88;21045;-50
2022/11/15 00:27:56;;;;;;;12.05;10.08;;;;;;;11.98;60.34;102530.20;1593579;88;21069;-50
2022/11/15 00:30:42;;;;;;;13.58;10.25;;;;;;;11.96;60.31;102525.42;1602537;88;21069;-50
2022/11/15 00:33:28;;;;;;;11.88;10.53;;;;;;;11.95;60.26;102515.41;1618746;88;21053;-50
2022/11/15 00:36:13;;;;;;;12.10;10.80;;;;;;;11.95;60.26;102514.57;1608973;88;21072;-50
2022/11/15 00:38:59;;;;;;;11.65;10.20;;;;;;;11.95;60.25;102509.36;1613703;86;21069;-50
2022/11/15 00:41:44;;;;;;;13.93;10.82;;;;;;;11.95;60.18;102511.50;1623718;87;21561;-50
2022/11/15 00:44:29;;;;;;;13.22;11.12;;;;;;;11.92;60.25;102504.13;1625796;86;21058;-50
2022/11/15 00:47:14;;;;;;;13.95;11.48;;;;;;;11.90;60.23;102498.91;1633382;86;21149;-50
2022/11/15 00:49:59;;;;;;;13.48;11.28;;;;;;;11.88;60.23;102494.13;1632766;86;21554;-50
2022/11/15 00:52:45;;;;;;;14.55;11.20;;;;;;;11.86;60.28;102491.08;1631788;87;21058;-50
2022/11/15 00:55:31;;;;;;;12.98;9.73;;;;;;;11.84;60.40;102491.08;1628323;87;21031;-51
2022/11/15 00:58:16;;;;;;;15.28;10.78;;;;;;;11.83;60.46;102490.63;1622295;87;21105;-50
2022/11/15 01:01:10;;;;;;;14.98;10.95;;;;;;;11.83;60.57;102484.58;1626901;87;21530;-50
2022/11/15 01:03:55;;;;;;;11.35;9.65;;;;;;;11.81;60.56;102485.85;1633882;87;21491;-50
2022/11/15 01:06:40;;;;;;;12.73;10.25;;;;;;;11.81;60.61;102479.80;1617648;87;21109;-51
2022/11/15 01:09:26;;;;;;;11.65;9.83;;;;;;;11.80;60.71;102484.55;1654719;85;21091;-50
2022/11/15 01:12:11;;;;;;;12.47;9.73;;;;;;;11.79;60.82;102478.89;1662743;85;21082;-50
2022/11/15 01:14:58;;;;;;;11.93;10.55;;;;;;;11.77;61.01;102479.32;1660519;85;21048;-50
2022/11/15 01:17:43;;;;;;;12.50;9.60;;;;;;;11.78;61.16;102474.55;1653782;85;21024;-50
2022/11/15 01:20:28;;;;;;;11.85;10.10;;;;;;;11.78;61.15;102474.13;1664169;85;21591;-51
2022/11/15 01:23:14;;;;;;;13.28;10.08;;;;;;;11.80;61.27;102471.52;1663475;85;21068;-50
2022/11/15 01:26:00;;;;;;;11.78;9.58;;;;;;;11.80;61.28;102475.42;1650016;85;21083;-50
2022/11/15 01:28:46;;;;;;;14.38;9.60;;;;;;;11.80;61.33;102473.70;1669127;85;21043;-50
2022/11/15 01:31:31;;;;;;;11.88;9.45;;;;;;;11.81;61.30;102471.97;1654217;85;21056;-51
2022/11/15 01:34:17;;;;;;;10.43;9.43;;;;;;;11.80;61.44;102470.20;1648606;85;21551;-50
2022/11/15 01:37:02;;;;;;;9.58;8.43;;;;;;;11.82;61.50;102464.56;1649565;85;21071;-50
2022/11/15 01:39:49;;;;;;;9.93;8.85;;;;;;;11.84;61.49;102464.13;1656021;85;21072;-50
2022/11/15 01:42:34;;;;;;;12.58;9.60;;;;;;;11.85;61.58;102461.97;1646611;85;21127;-50
2022/11/15 01:45:19;;;;;;;12.00;8.78;;;;;;;11.88;61.54;102461.95;1668984;85;21080;-49
2022/11/15 01:48:07;;;;;;;14.43;8.83;;;;;;;11.90;61.39;102456.30;1659857;85;21151;-50
2022/11/15 01:50:52;;;;;;;12.75;9.55;;;;;;;11.90;61.49;102465.42;1658305;85;21071;-50
2022/11/15 01:53:39;;;;;;;10.40;8.88;;;;;;;11.88;61.41;102453.70;1639092;86;21120;-50
2022/11/15 01:56:27;;;;;;;13.50;9.35;;;;;;;11.89;61.42;102454.58;1656865;85;21091;-50
2022/11/15 01:59:12;;;;;;;11.53;8.98;;;;;;;11.87;61.48;102453.70;1660186;85;21039;-50
2022/11/15 02:01:59;;;;;;;11.65;9.95;;;;;;;11.85;61.45;102451.53;1663337;85;21078;-50
2022/11/15 02:04:46;;;;;;;12.03;8.93;;;;;;;11.82;61.44;102451.52;1640095;85;21092;-50
2022/11/15 02:07:34;;;;;;;10.63;8.08;;;;;;;11.78;61.66;102448.05;1668402;85;21064;-51
2022/11/15 02:10:22;;;;;;;10.30;9.20;;;;;;;11.77;61.83;102445.42;1651840;84;21036;-50
2022/11/15 02:13:07;;;;;;;11.20;9.20;;;;;;;11.76;62.02;102435.88;1653420;85;21548;-50
2022/11/15 02:16:11;;;;;;;12.47;8.73;;;;;;;11.76;61.97;102434.56;1627303;86;21579;-50
2022/11/15 02:19:15;;;;;;;12.60;8.75;;;;;;;11.76;62.12;102430.23;1607278;88;21073;-50
2022/11/15 02:22:24;;;;;;;11.05;8.75;;;;;;;11.78;62.20;102430.22;1545022;90;21078;-51
2022/11/15 02:25:39;;;;;;;10.05;8.85;;;;;;;11.79;62.17;102427.61;1585165;89;21089;-50
2022/11/15 02:28:56;;;;;;;8.93;7.97;;;;;;;11.80;62.22;102428.48;1544027;90;21574;-52
2022/11/15 02:32:22;;;;;;;11.70;8.35;;;;;;;11.81;62.15;102427.63;1551850;91;21067;-51
2022/11/15 02:35:36;;;;;;;10.68;8.73;;;;;;;11.82;62.16;102431.95;1595130;89;21176;-52
2022/11/15 02:38:29;;;;;;;14.55;7.97;;;;;;;11.83;62.19;102431.10;1602577;88;21058;-50
2022/11/15 02:41:22;;;;;;;12.40;8.63;;;;;;;11.83;62.07;102433.71;1571177;90;21205;-50
2022/11/15 02:44:37;;;;;;;12.63;8.78;;;;;;;11.83;62.15;102426.73;1598444;88;21099;-50
2022/11/15 02:47:22;;;;;;;12.00;9.60;;;;;;;11.82;62.08;102421.52;1591549;88;21156;-50
2022/11/15 02:50:10;;;;;;;12.45;8.63;;;;;;;11.82;62.02;102421.52;1586697;89;21110;-50
2022/11/15 02:52:56;;;;;;;9.38;8.28;;;;;;;11.81;61.99;102420.64;1562975;91;21095;-50
2022/11/15 02:55:45;;;;;;;10.35;8.43;;;;;;;11.81;61.65;102425.02;1569506;90;21082;-50
2022/11/15 02:58:50;;;;;;;11.28;9.30;;;;;;;11.77;61.42;102419.34;1564253;88;21090;-50
2022/11/15 03:01:47;;;;;;;13.20;7.40;;;;;;;11.73;61.51;102414.56;1622485;87;21067;-50
2022/11/15 03:04:48;;;;;;;9.58;8.15;;;;;;;11.70;61.39;102418.92;1614244;87;21049;-52
2022/11/15 03:07:48;;;;;;;10.60;9.30;;;;;;;11.67;61.36;102411.96;1632845;86;21098;-51
2022/11/15 03:10:48;;;;;;;10.68;7.62;;;;;;;11.64;61.37;102406.73;1626962;87;21093;-50
2022/11/15 03:13:58;;;;;;;9.20;8.05;;;;;;;11.64;61.40;102407.16;1584760;89;21073;-51
2022/11/15 03:16:58;;;;;;;12.37;8.98;;;;;;;11.61;61.33;102405.41;1534375;91;21089;-50
2022/11/15 03:19:47;;;;;;;9.80;8.80;;;;;;;11.59;61.26;102404.97;1566216;90;21077;-50
2022/11/15 03:22:38;;;;;;;13.32;9.20;;;;;;;11.56;61.26;102406.29;1504987;94;21634;-50
2022/11/15 03:25:25;;;;;;;11.28;8.55;;;;;;;11.53;61.45;102407.58;1488517;95;21105;-50
2022/11/15 03:28:13;;;;;;;11.35;8.90;;;;;;;11.52;61.53;102405.86;1512096;93;21146;-50
2022/11/15 03:30:58;;;;;;;10.50;8.45;;;;;;;11.51;61.60;102405.41;1511598;93;21178;-50
2022/11/15 03:33:43;;;;;;;11.25;9.45;;;;;;;11.52;61.61;102405.86;1502473;93;21121;-51
2022/11/15 03:36:29;;;;;;;12.07;8.43;;;;;;;11.55;61.55;102403.23;1509067;94;21152;-50
2022/11/15 03:39:14;;;;;;;10.20;9.03;;;;;;;11.57;61.60;102398.89;1528870;92;21074;-50
2022/11/15 03:42:19;;;;;;;11.33;8.93;;;;;;;11.57;61.65;102405.41;1530878;92;21138;-51
2022/11/15 03:45:18;;;;;;;10.32;8.50;;;;;;;11.58;61.70;102401.94;1537587;93;21086;-50
2022/11/15 03:48:13;;;;;;;13.55;9.00;;;;;;;11.58;61.85;102398.03;1505147;94;21082;-52
2022/11/15 03:50:58;;;;;;;11.57;8.20;;;;;;;11.57;62.09;102391.06;1490108;95;21560;-51
2022/11/15 03:53:44;;;;;;;16.00;9.25;;;;;;;11.58;62.22;102387.61;1511645;93;21181;-51
2022/11/15 03:56:30;;;;;;;11.60;8.75;;;;;;;11.59;62.33;102391.94;1505598;93;21173;-52
2022/11/15 03:59:16;;;;;;;9.55;8.10;;;;;;;11.61;62.43;102386.28;1517523;93;21248;-51
2022/11/15 04:02:02;;;;;;;10.30;8.25;;;;;;;11.63;62.38;102385.84;1494632;95;21164;-51
2022/11/15 04:04:47;;;;;;;13.53;9.00;;;;;;;11.65;62.34;102378.89;1500027;93;21100;-52
2022/11/15 04:07:32;;;;;;;12.88;8.90;;;;;;;11.67;62.26;102379.80;1575690;89;21528;-51
2022/11/15 04:10:18;;;;;;;11.10;8.73;;;;;;;11.68;62.32;102372.42;1577120;90;21141;-51
2022/11/15 04:13:04;;;;;;;11.80;8.45;;;;;;;11.70;62.49;102377.20;1572594;90;21082;-51
2022/11/15 04:15:49;;;;;;;14.87;10.20;;;;;;;11.77;62.39;102373.70;1578731;90;21136;-51
2022/11/15 04:18:34;;;;;;;9.73;8.55;;;;;;;11.79;62.42;102374.56;1600285;85;21538;-51
2022/11/15 04:24:25;;;;;;;11.97;9.13;;;;;;;11.85;62.45;102365.46;1658509;85;21552;-51
2022/11/15 04:27:12;;;;;;;12.58;8.40;;;;;;;11.89;62.53;102361.98;1659285;85;21127;-51
2022/11/15 04:29:57;;;;;;;10.30;8.35;;;;;;;11.94;62.50;102357.60;1658367;85;21059;-51
2022/11/15 04:32:42;;;;;;;11.60;8.88;;;;;;;11.97;62.51;102349.78;1656892;85;21063;-52
2022/11/15 04:35:27;;;;;;;11.60;8.53;;;;;;;11.99;62.54;102351.95;1609816;88;21061;-51
2022/11/15 04:38:14;;;;;;;10.68;8.25;;;;;;;12.02;62.52;102356.72;1614696;88;21607;-51
2022/11/15 04:40:59;;;;;;;15.80;8.73;;;;;;;12.05;62.46;102348.02;1624249;87;21514;-52
2022/11/15 04:43:44;;;;;;;10.20;8.30;;;;;;;12.06;62.48;102349.74;1607736;87;21109;-51
2022/11/15 04:46:29;;;;;;;11.28;8.53;;;;;;;12.06;62.51;102341.91;1652560;85;21056;-51
2022/11/15 04:49:14;;;;;;;9.33;8.40;;;;;;;12.09;62.53;102355.84;1646787;86;21088;-51
2022/11/15 04:52:00;;;;;;;9.60;7.92;;;;;;;12.08;62.50;102350.61;1662643;85;21047;-51
2022/11/15 04:54:45;;;;;;;9.43;7.83;;;;;;;11.81;63.43;102344.17;1666201;85;21062;-51
2022/11/15 04:57:32;;;;;;;9.13;7.47;;;;;;;11.80;63.85;102345.91;1642538;85;21519;-51
2022/11/15 05:00:17;;;;;;;9.43;8.10;;;;;;;11.85;64.08;102341.98;1646849;85;21083;-51
2022/11/15 05:06:08;;;;;;;11.20;8.60;;;;;;;12.21;63.71;102349.28;1615353;88;21145;-52
2022/11/15 05:08:53;;;;;;;13.28;8.95;;;;;;;12.33;63.50;102337.91;1594691;88;21640;-51
2022/11/15 05:11:39;;;;;;;10.32;8.03;;;;;;;12.39;63.65;102344.41;1604886;88;21045;-51
2022/11/15 05:14:24;;;;;;;10.38;8.30;;;;;;;12.46;63.54;102342.23;1608090;88;21061;-53
2022/11/15 05:17:10;;;;;;;12.40;9.18;;;;;;;12.52;63.48;102342.20;1613179;88;21066;-51
2022/11/15 05:19:55;;;;;;;15.10;8.63;;;;;;;12.55;63.43;102339.55;1614379;88;21065;-51
2022/11/15 05:22:40;;;;;;;11.60;8.85;;;;;;;12.60;63.37;102342.15;1616308;88;21421;-52
2022/11/15 05:25:26;;;;;;;11.55;8.63;;;;;;;12.64;63.35;102347.36;1610547;87;21033;-51
2022/11/15 05:28:11;;;;;;;13.28;9.00;;;;;;;12.69;63.22;102342.99;1614263;88;21553;-51
2022/11/15 05:31:09;;;;;;;12.80;8.58;;;;;;;12.72;63.08;102339.04;1613778;86;21594;-52
2022/11/15 05:33:55;;;;;;;11.12;8.78;;;;;;;12.71;62.88;102343.85;1651373;86;21094;-51
2022/11/15 05:36:45;;;;;;;12.40;9.03;;;;;;;12.68;62.77;102345.59;1636136;86;21098;-50
2022/11/15 05:39:31;;;;;;;9.88;8.80;;;;;;;12.66;62.68;102344.73;1613000;88;21084;-51
2022/11/15 05:42:17;;;;;;;12.70;9.60;;;;;;;12.63;62.77;102345.60;1599748;89;21123;-50
2022/11/15 05:45:06;;;;;;;9.98;8.93;;;;;;;12.61;62.91;102342.13;1621607;87;21113;-50
2022/11/15 05:47:51;;;;;;;13.68;9.38;;;;;;;12.61;62.95;102343.44;1599541;88;21073;-51
2022/11/15 05:50:38;;;;;;;11.78;8.65;;;;;;;12.62;62.95;102343.01;1603583;87;21058;-51
2022/11/15 05:53:23;;;;;;;10.70;8.78;;;;;;;12.62;62.85;102338.66;1598892;89;21095;-51
2022/11/15 05:56:08;;;;;;;13.35;9.08;;;;;;;12.61;62.98;102336.91;1620775;88;21529;-51
2022/11/15 05:58:54;;;;;;;8.70;7.85;;;;;;;12.65;63.07;102338.63;1595447;89;21097;-51
2022/11/15 06:01:39;;;;;;;11.88;9.23;;;;;;;12.67;63.13;102341.26;1596900;89;21533;-50
2022/11/15 06:04:25;;;;;;;9.63;8.28;;;;;;;12.72;63.22;102339.04;1598763;89;21041;-51
2022/11/15 06:07:10;;;;;;;9.58;8.55;;;;;;;12.74;63.30;102337.72;1598516;89;21097;-50
2022/11/15 06:09:55;;;;;;;10.05;7.97;;;;;;;12.78;63.28;102335.09;1599974;89;21090;-51
2022/11/15 06:12:42;;;;;;;9.68;7.87;;;;;;;12.80;63.40;102335.95;1600804;89;21528;-50
2022/11/15 06:15:28;;;;;;;9.35;8.30;;;;;;;12.86;63.46;102337.21;1601995;89;21060;-51
2022/11/15 06:18:13;;;;;;;9.78;7.72;;;;;;;12.91;63.42;102330.23;1601487;89;21564;-50
2022/11/15 06:21:00;;;;;;;12.65;8.50;;;;;;;12.98;63.47;102338.44;1588632;89;21063;-50
2022/11/15 06:23:46;;;;;;;11.05;8.28;;;;;;;13.03;63.28;102328.83;1607815;89;21021;-50
2022/11/15 06:26:32;;;;;;;10.03;8.08;;;;;;;13.06;63.14;102335.83;1601594;89;21113;-49
2022/11/15 06:29:17;;;;;;;9.23;7.25;;;;;;;13.10;63.14;102331.44;1603400;88;21083;-50
2022/11/15 06:32:02;;;;;;;8.50;6.92;;;;;;;13.16;63.22;102328.78;1621254;87;21084;-51
2022/11/15 06:34:47;;;;;;;9.55;7.40;;;;;;;13.22;63.30;102320.45;1617298;88;21026;-50
2022/11/15 06:37:33;;;;;;;10.88;8.08;;;;;;;13.31;63.23;102326.05;1626028;87;21130;-50
2022/11/15 06:40:18;;;;;;;10.08;6.90;;;;;;;13.38;63.18;102330.34;1598628;88;21073;-50
2022/11/15 06:43:04;;;;;;;9.53;7.35;;;;;;;13.45;63.09;102325.50;1600184;87;21108;-50
2022/11/15 06:45:49;;;;;;;9.13;7.42;;;;;;;13.53;63.04;102324.98;1617840;87;21057;-51
2022/11/15 06:48:36;;;;;;;11.28;7.78;;;;;;;13.62;62.88;102324.91;1611804;88;21076;-51
2022/11/15 06:51:21;;;;;;;8.83;7.80;;;;;;;13.71;62.71;102322.19;1618630;87;21081;-51
2022/11/15 06:54:06;;;;;;;10.58;8.25;;;;;;;13.75;62.00;102336.97;1604370;88;21057;-51
2022/11/15 06:56:51;;;;;;;9.43;8.03;;;;;;;13.69;61.35;102335.29;1604039;88;21057;-50
2022/11/15 06:59:37;;;;;;;8.15;7.22;;;;;;;13.61;61.12;102329.27;1604956;88;21049;-51
2022/11/15 07:02:22;;;;;;;9.78;8.38;;;;;;;13.57;61.07;102331.92;1608013;88;21073;-51
2022/11/15 07:05:08;;;;;;;11.08;8.98;;;;;;;13.50;61.11;102325.88;1620423;88;21065;-51
2022/11/15 07:07:54;;;;;;;9.78;7.35;;;;;;;13.48;61.33;102321.09;1672807;85;21056;-51
2022/11/15 07:10:40;;;;;;;9.50;8.38;;;;;;;13.50;61.23;102311.92;1662211;85;21582;-51
2022/11/15 07:13:26;;;;;;;10.25;8.80;;;;;;;13.49;61.23;102308.89;1664833;85;21092;-51
2022/11/15 07:16:12;;;;;;;10.53;8.33;;;;;;;13.50;61.25;102306.69;1661548;85;21051;-51
2022/11/15 07:18:58;;;;;;;10.48;7.72;;;;;;;13.51;61.37;102308.44;1665443;85;21051;-51
2022/11/15 07:21:44;;;;;;;9.28;6.95;;;;;;;13.55;61.40;102301.87;1668321;85;21435;-51
2022/11/15 07:24:29;;;;;;;9.60;7.85;;;;;;;13.59;61.04;102302.69;1660301;85;21171;-50
2022/11/15 07:27:14;;;;;;;8.75;7.42;;;;;;;13.58;60.74;102299.67;1661176;85;21079;-51
2022/11/15 07:30:00;;;;;;;7.90;7.10;;;;;;;13.58;60.65;102297.89;1663295;85;21036;-50
2022/11/15 07:32:46;;;;;;;9.85;7.10;;;;;;;13.59;60.67;102300.95;1656862;85;21566;-51
2022/11/15 07:35:31;;;;;;;10.25;7.70;;;;;;;13.63;60.76;102293.50;1648941;85;21079;-50
2022/11/15 07:38:19;;;;;;;8.60;7.22;;;;;;;13.68;60.69;102299.53;1662707;85;21043;-51
2022/11/15 07:41:05;;;;;;;11.33;7.60;;;;;;;13.71;60.38;102295.59;1669609;85;21103;-51
2022/11/15 07:43:53;;;;;;;10.38;7.78;;;;;;;13.70;60.13;102291.70;1660578;85;21080;-51
2022/11/15 07:46:38;;;;;;;8.48;6.83;;;;;;;13.71;60.20;102290.80;1658494;85;21050;-51
2022/11/15 07:49:25;;;;;;;10.05;7.25;;;;;;;13.75;60.20;102293.38;1655493;85;21044;-51
2022/11/15 07:52:10;;;;;;;8.70;6.80;;;;;;;13.75;59.85;102289.88;1662633;85;21063;-50
2022/11/15 07:54:57;;;;;;;10.43;7.47;;;;;;;13.73;59.79;102288.59;1658280;85;21103;-51
2022/11/15 07:57:42;;;;;;;8.93;7.58;;;;;;;13.73;59.80;102283.80;1658869;85;21531;-51
2022/11/15 08:00:28;;;;;;;8.73;7.72;;;;;;;13.72;59.75;102286.84;1654431;85;21051;-51
2022/11/15 08:03:16;;;;;;;10.98;9.15;;;;;;;13.73;59.78;102294.27;1640654;85;28423;-50
2022/11/15 08:06:01;;;;;;;9.18;8.25;;;;;;;13.76;59.85;102291.63;1635842;86;21107;-50
2022/11/15 08:08:47;;;;;;;8.95;7.58;;;;;;;13.84;59.78;102293.72;1653909;85;21075;-50
2022/11/15 08:11:33;;;;;;;9.65;7.33;;;;;;;13.85;59.47;102291.52;1644919;85;21071;-50
2022/11/15 08:14:18;;;;;;;9.08;8.00;;;;;;;13.81;59.37;102287.20;1651017;85;21615;-50
2022/11/15 08:17:04;;;;;;;8.40;7.50;;;;;;;13.77;59.44;102279.83;1669024;85;21048;-49
2022/11/15 08:19:49;;;;;;;7.53;6.78;;;;;;;13.80;59.40;102285.48;1657806;85;22658;-50
2022/11/15 08:22:34;;;;;;;8.45;6.87;;;;;;;13.80;59.31;102286.36;1663483;85;21091;-50
2022/11/15 08:25:20;;;;;;;10.32;7.53;;;;;;;13.81;59.36;102285.89;1663976;85;21583;-50
2022/11/15 08:28:07;;;;;;;9.95;7.78;;;;;;;13.84;59.57;102281.95;1650645;85;21091;-50
2022/11/15 08:30:52;;;;;;;8.85;7.95;;;;;;;13.88;59.56;102283.64;1652730;85;21075;-50
2022/11/15 08:33:37;;;;;;;7.85;7.05;;;;;;;13.92;59.49;102272.26;1619601;87;21055;-50
2022/11/15 08:36:24;;;;;;;12.68;8.25;;;;;;;13.99;59.57;102270.01;1609002;87;21587;-50
2022/11/15 08:39:13;;;;;;;9.38;7.75;;;;;;;14.08;59.50;102265.08;1648326;85;21052;-50
2022/11/15 08:41:58;;;;;;;10.98;7.87;;;;;;;14.15;59.34;102264.13;1647000;85;21052;-51
2022/11/15 08:44:43;;;;;;;9.58;7.30;;;;;;;14.18;59.07;102258.88;1658652;85;21091;-50
2022/11/15 08:47:29;;;;;;;8.03;7.20;;;;;;;14.19;58.93;102264.08;1657204;85;21154;-51
2022/11/15 08:50:15;;;;;;;8.78;7.80;;;;;;;14.18;59.03;102259.71;1664745;85;21108;-50
2022/11/15 08:53:07;;;;;;;12.88;7.83;;;;;;;14.18;59.17;102253.17;1659728;85;21143;-50
2022/11/15 08:55:53;;;;;;;10.88;7.55;;;;;;;14.25;59.19;102245.67;1666051;86;21081;-50
2022/11/15 08:58:39;;;;;;;10.20;7.83;;;;;;;14.34;59.17;102249.48;1666040;85;21101;-50
2022/11/15 09:01:24;;;;;;;10.43;7.22;;;;;;;14.40;59.11;102246.82;1660054;85;21069;-51
2022/11/15 09:04:09;;;;;;;10.50;7.55;;;;;;;14.48;59.02;102242.34;1660732;86;21141;-51
2022/11/15 09:06:54;;;;;;;9.68;7.53;;;;;;;14.56;58.80;102235.23;1657460;85;21049;-51
2022/11/15 09:09:40;;;;;;;8.33;7.42;;;;;;;14.65;58.70;102238.16;1666212;85;21089;-51
2022/11/15 09:12:25;;;;;;;9.65;7.17;;;;;;;14.69;58.50;102234.14;1666210;86;22112;-51
2022/11/15 09:15:10;;;;;;;9.45;7.83;;;;;;;14.76;58.46;102237.97;1666042;85;21596;-51
2022/11/15 09:18:00;;;;;;;8.93;7.70;;;;;;;14.82;58.33;102232.66;1661151;86;21046;-51
2022/11/15 09:20:46;;;;;;;9.33;7.60;;;;;;;14.90;58.11;102230.31;1642251;86;21030;-50
2022/11/15 09:23:31;;;;;;;9.48;7.67;;;;;;;14.94;57.69;102221.52;1661162;85;21080;-51
2022/11/15 09:26:17;;;;;;;9.23;7.25;;;;;;;14.96;57.38;102220.20;1662338;86;21569;-51
2022/11/15 09:29:03;;;;;;;10.03;7.33;;;;;;;14.94;57.23;102211.50;1666275;86;21053;-51
2022/11/15 09:31:48;;;;;;;8.85;7.95;;;;;;;14.93;57.14;102213.68;1666000;86;21096;-51
2022/11/15 09:34:35;;;;;;;9.80;8.00;;;;;;;14.91;57.09;102212.41;1666357;86;21090;-50
2022/11/15 09:37:19;;;;;;;9.85;7.28;;;;;;;14.87;57.11;102204.61;1666367;86;21061;-51
2022/11/15 09:40:08;;;;;;;12.33;9.88;;;;;;;14.83;57.15;102197.69;1658882;86;21124;-51
2022/11/15 09:43:10;;;;;;;13.48;9.28;;;;;;;14.83;57.08;102189.83;1661708;85;21572;-51
2022/11/15 09:46:07;;;;;;;10.58;9.00;;;;;;;14.83;57.10;102193.77;1622178;87;21612;-50
2022/11/15 09:48:56;;;;;;;9.95;8.25;;;;;;;14.84;57.08;102190.27;1542095;91;21123;-51
2022/11/15 09:51:46;;;;;;;10.58;8.83;;;;;;;14.85;57.03;102186.73;1534324;91;21651;-50
2022/11/15 09:54:30;;;;;;;9.50;8.50;;;;;;;14.85;57.12;102186.73;1542385;91;21116;-51
2022/11/15 09:57:13;;;;;;;10.90;9.80;;;;;;;14.86;57.02;102181.94;1532460;91;21116;-51
2022/11/15 10:00:02;;;;;;;9.40;8.08;;;;;;;14.85;57.21;102180.19;1493136;94;21154;-51
2022/11/15 10:02:58;;;;;;;9.65;8.60;;;;;;;14.86;57.27;102174.07;1497603;94;21087;-51
2022/11/15 10:05:25;;;;;;;11.20;8.75;;;;;;;14.89;57.36;102168.76;1500433;94;21078;-50
2022/11/15 10:08:26;;;;;;;9.83;8.05;;;;;;;14.96;57.33;102173.02;1500324;93;21128;-50
2022/11/15 10:11:00;;;;;;;8.60;7.70;;;;;;;15.00;57.24;102170.29;1481743;96;21184;-50
2022/11/15 10:13:30;;;;;;;9.58;8.53;;;;;;;15.11;57.03;102170.11;1502106;94;21108;-50
2022/11/15 10:16:25;;;;;;;10.58;7.92;;;;;;;15.16;56.86;102165.66;1500924;94;21128;-51
2022/11/15 10:19:18;;;;;;;11.22;8.80;;;;;;;15.18;56.77;102163.88;1497294;94;21163;-50
2022/11/15 10:22:12;;;;;;;10.03;8.20;;;;;;;15.19;56.86;102163.84;1499568;93;21120;-51
2022/11/15 10:24:42;;;;;;;10.00;8.58;;;;;;;15.26;56.79;102159.34;1473446;96;21116;-51
2022/11/15 10:27:14;;;;;;;10.65;8.95;;;;;;;15.32;56.59;102152.67;1442312;96;21115;-51
2022/11/15 10:29:48;;;;;;;9.93;8.93;;;;;;;15.34;56.54;102149.13;1448883;97;21116;-50
2022/11/15 10:32:17;;;;;;;9.18;8.20;;;;;;;15.39;56.39;102146.43;1435806;99;21208;-51
2022/11/15 10:34:44;;;;;;;11.48;8.60;;;;;;;15.42;56.11;102141.11;1461882;96;21127;-51
2022/11/15 10:37:11;;;;;;;10.68;8.55;;;;;;;15.42;56.03;102138.08;1447805;97;21130;-51
2022/11/15 10:39:37;;;;;;;10.32;8.55;;;;;;;15.44;55.94;102135.41;1427508;99;21233;-50
2022/11/15 10:42:28;;;;;;;11.20;9.50;;;;;;;15.44;55.96;102132.80;1426283;99;21124;-50
2022/11/15 10:44:54;;;;;;;10.35;9.23;;;;;;;15.47;55.99;102132.75;1474276;96;21727;-51
2022/11/15 10:47:30;;;;;;;10.90;9.05;;;;;;;15.49;55.89;102130.95;1472231;93;21686;-49
2022/11/15 10:50:07;;;;;;;9.05;8.15;;;;;;;15.53;55.79;102123.88;1549573;91;21159;-49
2022/11/15 10:52:36;;;;;;;10.00;8.48;;;;;;;15.53;55.70;102122.13;1543033;91;21177;-51
2022/11/15 10:55:18;;;;;;;10.32;8.50;;;;;;;15.50;55.72;102116.92;1591422;89;21093;-52
2022/11/15 10:57:55;;;;;;;11.55;8.98;;;;;;;15.50;55.83;102116.09;1552641;91;21086;-52
2022/11/15 11:00:35;;;;;;;11.12;8.95;;;;;;;15.50;55.88;102115.62;1524450;93;21149;-52
2022/11/15 11:03:06;;;;;;;9.93;8.48;;;;;;;15.50;55.88;102111.68;1506967;93;21117;-52
2022/11/15 11:05:38;;;;;;;10.18;9.08;;;;;;;15.50;55.86;102113.47;1527593;93;21554;-49
2022/11/15 11:08:16;;;;;;;11.78;8.85;;;;;;;15.48;55.74;102101.67;1571059;90;21176;-52
2022/11/15 11:10:57;;;;;;;12.28;8.35;;;;;;;15.44;55.70;102101.31;1564479;90;22450;-49
2022/11/15 11:13:34;;;;;;;11.03;9.20;;;;;;;15.38;55.78;102105.34;1561319;90;21050;-50
2022/11/15 11:16:21;;;;;;;14.35;8.98;;;;;;;15.28;55.84;102098.12;1552191;91;21073;-53
2022/11/15 11:19:27;;;;;;;13.28;9.95;;;;;;;15.22;55.87;102093.44;1533284;92;21114;-49
2022/11/15 11:22:23;;;;;;;11.20;8.43;;;;;;;15.14;56.14;102084.86;1548970;90;21131;-50
2022/11/15 11:25:17;;;;;;;10.48;8.95;;;;;;;15.07;56.37;102077.98;1535451;91;21085;-50
2022/11/15 11:28:05;;;;;;;10.48;8.78;;;;;;;15.04;56.51;102071.52;1530532;91;21119;-52
2022/11/15 11:31:06;;;;;;;10.98;8.58;;;;;;;15.03;56.61;102067.15;1514084;93;21100;-49
2022/11/15 11:33:44;;;;;;;11.45;9.60;;;;;;;15.05;56.56;102057.49;1510625;93;21130;-50
2022/11/15 11:36:23;;;;;;;10.68;8.70;;;;;;;15.10;56.67;102055.66;1592488;88;21490;-48
2022/11/15 11:39:00;;;;;;;11.18;9.40;;;;;;;15.12;56.73;102049.50;1557133;91;21080;-50
2022/11/15 11:41:44;;;;;;;11.97;9.15;;;;;;;15.17;56.80;102044.14;1544538;91;21116;-49
2022/11/15 11:44:34;;;;;;;9.23;7.87;;;;;;;15.20;56.58;102041.47;1599830;88;21101;-52
2022/11/15 11:47:10;;;;;;;8.55;7.37;;;;;;;15.27;56.46;102039.16;1596729;88;21053;-51
2022/11/15 11:49:48;;;;;;;9.53;7.17;;;;;;;15.33;55.76;102035.09;1511347;93;21648;-51
2022/11/15 11:52:27;;;;;;;12.13;7.33;;;;;;;15.38;55.36;102031.91;1512867;93;21611;-51
2022/11/15 11:55:14;;;;;;;11.08;7.50;;;;;;;15.45;55.10;102030.92;1519869;94;21095;-50
2022/11/15 11:57:55;;;;;;;13.03;10.58;;;;;;;15.50;54.78;102023.80;1510043;93;21123;-49
2022/11/15 12:00:27;;;;;;;9.65;8.40;;;;;;;15.57;54.60;102021.47;1515347;93;21169;-50
2022/11/15 12:03:04;;;;;;;9.58;8.43;;;;;;;15.61;54.60;102020.50;1495466;94;21076;-50
2022/11/15 12:05:44;;;;;;;14.05;7.60;;;;;;;15.63;54.62;102021.33;1525349;93;21182;-50
2022/11/15 12:08:22;;;;;;;7.78;6.85;;;;;;;15.63;54.52;102018.70;1522876;93;21157;-50
2022/11/15 12:11:05;;;;;;;7.20;6.47;;;;;;;15.64;54.56;102016.48;1507214;93;21163;-50
2022/11/15 12:13:36;;;;;;;8.45;6.67;;;;;;;15.64;54.51;102012.55;1504876;93;21717;-50
2022/11/15 12:16:18;;;;;;;8.58;6.60;;;;;;;15.68;54.51;102008.98;1527688;92;21098;-50
2022/11/15 12:18:49;;;;;;;6.53;4.65;;;;;;;15.72;54.53;102001.89;1486474;95;21135;-51
2022/11/15 12:21:24;;;;;;;5.67;4.08;;;;;;;15.76;54.36;102001.80;1497567;94;21587;-49
2022/11/15 12:23:54;;;;;;;7.40;4.08;;;;;;;15.82;53.90;101996.40;1522727;92;21094;-50
2022/11/15 12:26:26;;;;;;;4.67;3.30;;;;;;;15.87;53.32;101998.45;1545442;88;21640;-50
2022/11/15 12:28:59;;;;;;;5.45;3.95;;;;;;;15.92;52.78;101992.66;1609227;88;21117;-50
2022/11/15 12:31:43;;;;;;;7.65;6.05;;;;;;;15.96;52.51;101992.12;1611948;88;21053;-50
2022/11/15 12:34:28;;;;;;;8.30;6.67;;;;;;;15.99;52.81;101988.96;1626471;87;21078;-50
2022/11/15 12:36:55;;;;;;;8.78;6.80;;;;;;;16.00;52.97;101990.70;1665353;85;21135;-51
2022/11/15 12:39:24;;;;;;;7.33;6.30;;;;;;;15.99;53.30;101983.71;1656099;85;21056;-49
2022/11/15 12:42:02;;;;;;;5.40;4.60;;;;;;;16.00;53.38;101981.95;1655476;84;21074;-51
2022/11/15 12:44:39;;;;;;;6.97;3.77;;;;;;;16.00;53.30;101980.20;1660853;85;21576;-49
2022/11/15 12:47:23;;;;;;;3.62;3.33;;;;;;;15.99;52.63;101977.14;1666838;85;21144;-50
2022/11/15 12:49:51;;;;;;;4.87;4.05;;;;;;;16.01;52.24;101980.59;1667866;84;21044;-50